createdAt,value
2019-03-06T05:00:52.042Z,7.75
2019-03-06T05:01:51.908Z,7.73
2019-03-06T05:03:44.562Z,7.80
2019-03-06T05:04:44.486Z,7.74
2019-03-06T05:06:37.134Z,7.77
2019-03-06T05:07:36.998Z,7.73
2019-03-06T05:09:29.662Z,7.78
2019-03-06T05:10:29.554Z,7.77
2019-03-06T05:12:22.250Z,7.83
2019-03-06T05:13:22.107Z,7.78
2019-03-06T05:15:14.805Z,7.89
2019-03-06T05:16:14.696Z,7.91
2019-03-06T05:18:07.915Z,7.91
2019-03-06T05:19:07.746Z,7.91
2019-03-06T05:21:00.414Z,7.91
2019-03-06T05:22:00.302Z,7.91
2019-03-06T05:23:52.991Z,7.85
2019-03-06T05:24:52.864Z,7.98
2019-03-06T05:26:45.524Z,7.86
2019-03-06T05:27:45.410Z,7.91
2019-03-06T05:29:38.104Z,7.86
2019-03-06T05:30:37.969Z,7.88
2019-03-06T05:32:30.630Z,7.86
2019-03-06T05:33:30.516Z,7.86
2019-03-06T05:35:23.201Z,7.91
2019-03-06T05:36:23.069Z,7.85
2019-03-06T05:38:15.756Z,7.86
2019-03-06T05:39:15.638Z,7.95
2019-03-06T05:41:08.327Z,7.93
2019-03-06T05:42:08.196Z,7.96
2019-03-06T05:44:00.849Z,7.93
2019-03-06T05:45:00.741Z,7.86
2019-03-06T05:46:53.426Z,7.75
2019-03-06T05:47:53.293Z,7.89
2019-03-06T05:49:45.960Z,7.88
2019-03-06T05:50:45.852Z,7.82
2019-03-06T05:52:38.574Z,7.88
2019-03-06T05:53:38.412Z,7.92
2019-03-06T05:55:31.080Z,7.95
2019-03-06T05:56:30.959Z,7.85
2019-03-06T05:58:23.640Z,7.96
2019-03-06T05:59:23.510Z,7.93
2019-03-06T06:01:16.185Z,7.88
2019-03-06T06:02:16.080Z,7.95
2019-03-06T06:04:08.763Z,8.01
2019-03-06T06:05:08.639Z,7.88
2019-03-06T06:07:01.296Z,7.95
2019-03-06T06:08:01.187Z,7.91
2019-03-06T06:09:53.888Z,7.89
2019-03-06T06:10:53.737Z,8.01
2019-03-06T06:12:46.426Z,7.96
2019-03-06T06:13:46.286Z,7.89
2019-03-06T06:15:39.014Z,7.98
2019-03-06T06:16:39.173Z,8.09
2019-03-06T06:18:32.409Z,8.06
2019-03-06T06:19:32.102Z,8.04
2019-03-06T06:21:24.773Z,8.09
2019-03-06T06:22:24.655Z,8.07
2019-03-06T06:24:17.343Z,8.04
2019-03-06T06:25:17.211Z,8.04
2019-03-06T06:27:10.298Z,8.04
2019-03-06T06:28:09.894Z,8.03
2019-03-06T06:30:02.564Z,8.13
2019-03-06T06:31:02.675Z,8.22
2019-03-06T06:32:55.119Z,8.14
2019-03-06T06:33:54.983Z,8.21
2019-03-06T06:35:47.669Z,8.22
2019-03-06T06:36:47.536Z,8.25
2019-03-06T06:38:40.210Z,8.26
2019-03-06T06:39:40.093Z,8.29
2019-03-06T06:41:32.765Z,8.32
2019-03-06T06:42:32.642Z,8.36
2019-03-06T06:44:25.301Z,8.32
2019-03-06T06:45:25.195Z,8.29
2019-03-06T06:47:17.917Z,8.43
2019-03-06T06:48:17.777Z,8.39
2019-03-06T06:50:10.467Z,8.42
2019-03-06T06:51:10.340Z,8.44
2019-03-06T06:53:03.026Z,8.44
2019-03-06T06:54:02.900Z,8.46
2019-03-06T06:55:55.564Z,8.49
2019-03-06T06:56:55.445Z,8.58
2019-03-06T06:58:48.174Z,8.67
2019-03-06T06:59:48.005Z,8.54
2019-03-06T07:01:40.686Z,8.67
2019-03-06T07:02:40.571Z,8.64
2019-03-06T07:04:33.214Z,8.64
2019-03-06T07:05:33.108Z,8.62
2019-03-06T07:07:25.794Z,8.76
2019-03-06T07:08:25.660Z,8.72
2019-03-06T07:10:18.316Z,8.72
2019-03-06T07:11:18.215Z,8.76
2019-03-06T07:13:10.902Z,8.85
2019-03-06T07:14:10.758Z,8.83
2019-03-06T07:16:03.422Z,8.94
2019-03-06T07:17:03.314Z,8.90
2019-03-06T07:18:56.005Z,9.01
2019-03-06T07:19:55.867Z,8.98
2019-03-06T07:21:48.536Z,9.08
2019-03-06T07:22:48.432Z,9.21
2019-03-06T07:24:41.151Z,9.20
2019-03-06T07:25:40.977Z,9.14
2019-03-06T07:27:33.647Z,9.27
2019-03-06T07:28:33.550Z,9.37
2019-03-06T07:30:26.220Z,9.32
2019-03-06T07:31:26.082Z,9.35
2019-03-06T07:33:18.752Z,9.47
2019-03-06T07:34:18.639Z,9.47
2019-03-06T07:36:11.317Z,9.45
2019-03-06T07:37:11.190Z,9.53
2019-03-06T07:39:03.855Z,9.55
2019-03-06T07:40:03.743Z,9.56
2019-03-06T07:41:56.421Z,9.63
2019-03-06T07:42:56.298Z,9.70
2019-03-06T07:44:48.958Z,9.78
2019-03-06T07:45:48.851Z,9.81
2019-03-06T07:47:41.527Z,9.80
2019-03-06T07:48:41.397Z,9.88
2019-03-06T07:50:34.069Z,9.82
2019-03-06T07:51:33.953Z,9.82
2019-03-06T07:53:26.653Z,9.98
2019-03-06T07:54:26.525Z,9.98
2019-03-06T07:56:19.187Z,9.98
2019-03-06T07:57:19.081Z,9.90
2019-03-06T07:59:11.760Z,9.88
2019-03-06T08:00:11.635Z,9.88
2019-03-06T08:02:04.297Z,9.89
2019-03-06T08:03:04.193Z,9.90
2019-03-06T08:04:56.866Z,9.95
2019-03-06T08:05:56.749Z,10.05
2019-03-06T08:07:49.413Z,10.17
2019-03-06T08:08:49.296Z,10.17
2019-03-06T08:10:41.977Z,10.15
2019-03-06T08:11:41.856Z,10.13
2019-03-06T08:13:34.522Z,10.05
2019-03-06T08:14:34.408Z,10.20
2019-03-06T08:16:27.109Z,10.26
2019-03-06T08:17:26.986Z,10.20
2019-03-06T08:19:19.677Z,10.31
2019-03-06T08:20:19.549Z,10.26
2019-03-06T08:22:12.225Z,10.28
2019-03-06T08:23:12.148Z,10.39
2019-03-06T08:25:04.765Z,10.39
2019-03-06T08:26:04.654Z,10.44
2019-03-06T08:27:57.334Z,10.58
2019-03-06T08:28:57.207Z,10.69
2019-03-06T08:30:49.869Z,10.72
2019-03-06T08:31:49.765Z,10.63
2019-03-06T08:33:42.460Z,10.90
2019-03-06T08:34:42.323Z,10.90
2019-03-06T08:36:34.991Z,10.92
2019-03-06T08:37:34.878Z,10.94
2019-03-06T08:39:27.576Z,11.08
2019-03-06T08:40:27.455Z,11.20
2019-03-06T08:42:20.131Z,11.18
2019-03-06T08:43:20.026Z,11.18
2019-03-06T08:45:12.702Z,11.28
2019-03-06T08:46:12.571Z,11.28
2019-03-06T08:48:05.250Z,11.30
2019-03-06T08:49:05.127Z,11.23
2019-03-06T08:50:57.820Z,11.34
2019-03-06T08:51:57.693Z,11.38
2019-03-06T08:53:50.362Z,11.31
2019-03-06T08:54:50.253Z,11.46
2019-03-06T08:56:42.940Z,11.34
2019-03-06T08:57:42.812Z,11.38
2019-03-06T08:59:35.489Z,11.42
2019-03-06T09:00:35.371Z,11.28
2019-03-06T09:02:28.073Z,11.31
2019-03-06T09:03:27.933Z,11.33
2019-03-06T09:05:20.600Z,11.43
2019-03-06T09:06:20.493Z,11.46
2019-03-06T09:08:13.184Z,11.52
2019-03-06T09:09:13.055Z,11.60
2019-03-06T09:11:05.729Z,11.67
2019-03-06T09:12:05.614Z,11.84
2019-03-06T09:13:58.322Z,12.01
2019-03-06T09:14:58.178Z,12.00
2019-03-06T09:16:50.855Z,12.11
2019-03-06T09:17:50.780Z,12.20
2019-03-06T09:19:43.435Z,12.15
2019-03-06T09:20:43.309Z,12.26
2019-03-06T09:22:35.977Z,12.15
2019-03-06T09:23:35.873Z,12.20
2019-03-06T09:25:28.557Z,12.22
2019-03-06T09:26:28.432Z,12.18
2019-03-06T09:28:21.108Z,12.22
2019-03-06T09:29:20.990Z,12.25
2019-03-06T09:31:13.680Z,12.37
2019-03-06T09:32:13.551Z,12.44
2019-03-06T09:34:06.234Z,12.48
2019-03-06T09:35:06.122Z,12.56
2019-03-06T09:36:58.806Z,12.59
2019-03-06T09:37:58.677Z,12.70
2019-03-06T09:39:51.365Z,12.83
2019-03-06T09:40:51.241Z,12.78
2019-03-06T09:42:43.932Z,12.96
2019-03-06T09:43:43.804Z,12.84
2019-03-06T09:45:36.491Z,12.98
2019-03-06T09:46:36.386Z,13.02
2019-03-06T09:48:29.086Z,13.01
2019-03-06T09:49:28.985Z,13.06
2019-03-06T09:51:21.620Z,13.21
2019-03-06T09:52:21.506Z,13.24
2019-03-06T09:54:14.201Z,13.31
2019-03-06T09:55:14.087Z,13.29
2019-03-06T09:57:06.762Z,13.51
2019-03-06T09:58:06.640Z,13.44
2019-03-06T09:59:59.337Z,13.44
2019-03-06T10:00:59.282Z,13.47
2019-03-06T10:02:51.940Z,13.51
2019-03-06T10:03:51.795Z,13.60
2019-03-06T10:05:44.495Z,13.58
2019-03-06T10:06:44.363Z,13.50
2019-03-06T10:08:37.044Z,13.60
2019-03-06T10:09:36.929Z,13.58
2019-03-06T10:11:29.628Z,13.70
2019-03-06T10:12:29.501Z,13.68
2019-03-06T10:14:22.167Z,13.69
2019-03-06T10:15:22.063Z,13.79
2019-03-06T10:17:14.757Z,13.69
2019-03-06T10:18:14.628Z,13.83
2019-03-06T10:20:07.304Z,13.75
2019-03-06T10:21:07.196Z,13.72
2019-03-06T10:22:59.926Z,13.83
2019-03-06T10:23:59.777Z,13.94
2019-03-06T10:25:52.443Z,13.95
2019-03-06T10:26:52.345Z,14.09
2019-03-06T10:28:45.029Z,13.94
2019-03-06T10:29:44.908Z,13.95
2019-03-06T10:31:38.621Z,13.99
2019-03-06T10:32:37.472Z,14.12
2019-03-06T10:34:30.164Z,14.08
2019-03-06T10:35:30.042Z,14.12
2019-03-06T10:37:22.718Z,14.19
2019-03-06T10:38:22.606Z,14.23
2019-03-06T10:40:15.300Z,14.33
2019-03-06T10:41:15.165Z,14.34
2019-03-06T10:43:07.840Z,14.39
2019-03-06T10:44:07.735Z,14.45
2019-03-06T10:46:00.434Z,14.52
2019-03-06T10:47:00.298Z,14.45
2019-03-06T10:48:52.977Z,14.48
2019-03-06T10:49:52.870Z,14.57
2019-03-06T10:51:45.560Z,14.60
2019-03-06T10:52:45.442Z,14.70
2019-03-06T10:54:44.709Z,14.86
2019-03-06T10:55:38.020Z,14.83
2019-03-06T10:57:30.706Z,14.95
2019-03-06T10:58:30.581Z,14.79
2019-03-06T11:00:23.252Z,14.82
2019-03-06T11:01:23.152Z,14.86
2019-03-06T11:03:15.843Z,14.98
2019-03-06T11:04:15.714Z,14.95
2019-03-06T11:06:08.399Z,15.04
2019-03-06T11:07:08.295Z,15.18
2019-03-06T11:09:00.985Z,15.19
2019-03-06T11:10:00.861Z,15.15
2019-03-06T11:11:53.540Z,15.15
2019-03-06T11:12:53.441Z,15.16
2019-03-06T11:14:46.134Z,15.15
2019-03-06T11:15:55.161Z,15.13
2019-03-06T11:17:38.683Z,15.18
2019-03-06T11:18:38.577Z,15.23
2019-03-06T11:20:31.269Z,15.41
2019-03-06T11:21:31.142Z,15.31
2019-03-06T11:23:25.030Z,15.47
2019-03-06T11:24:23.714Z,15.67
2019-03-06T11:26:16.404Z,15.60
2019-03-06T11:27:16.291Z,15.65
2019-03-06T11:29:09.964Z,15.58
2019-03-06T11:30:09.854Z,15.62
2019-03-06T11:32:02.549Z,15.74
2019-03-06T11:33:02.423Z,15.68
2019-03-06T11:34:55.106Z,15.80
2019-03-06T11:35:54.994Z,15.88
2019-03-06T11:37:47.711Z,15.95
2019-03-06T11:38:47.566Z,15.93
2019-03-06T11:40:40.257Z,16.11
2019-03-06T11:41:40.153Z,15.98
2019-03-06T11:43:32.852Z,16.10
2019-03-06T11:44:32.724Z,16.10
2019-03-06T11:46:25.406Z,16.25
2019-03-06T11:47:25.305Z,16.33
2019-03-06T11:49:18.009Z,16.36
2019-03-06T11:50:17.875Z,16.49
2019-03-06T11:52:10.556Z,16.48
2019-03-06T11:53:10.453Z,16.59
2019-03-06T11:55:06.128Z,16.76
2019-03-06T11:56:03.035Z,16.66
2019-03-06T11:57:55.743Z,16.32
2019-03-06T11:58:55.595Z,16.27
2019-03-06T12:00:48.290Z,16.27
2019-03-06T12:01:48.538Z,16.17
2019-03-06T12:03:40.844Z,15.99
2019-03-06T12:04:40.744Z,15.93
2019-03-06T12:06:33.449Z,16.07
2019-03-06T12:07:33.319Z,16.00
2019-03-06T12:09:26.008Z,16.22
2019-03-06T12:10:25.896Z,16.21
2019-03-06T12:12:18.588Z,16.34
2019-03-06T12:13:18.470Z,16.14
2019-03-06T12:15:11.143Z,16.32
2019-03-06T12:16:11.030Z,16.32
2019-03-06T12:18:03.726Z,16.45
2019-03-06T12:19:03.606Z,16.48
2019-03-06T12:20:56.290Z,16.58
2019-03-06T12:21:56.178Z,16.45
2019-03-06T12:23:48.882Z,16.49
2019-03-06T12:24:48.757Z,16.47
2019-03-06T12:26:41.436Z,16.54
2019-03-06T12:27:41.334Z,16.58
2019-03-06T12:29:34.033Z,16.63
2019-03-06T12:30:33.902Z,16.67
2019-03-06T12:32:27.266Z,16.94
2019-03-06T12:33:26.479Z,17.03
2019-03-06T12:35:19.181Z,17.07
2019-03-06T12:36:19.053Z,17.07
2019-03-06T12:38:11.745Z,16.99
2019-03-06T12:39:11.639Z,17.02
2019-03-06T12:41:04.338Z,17.15
2019-03-06T12:42:04.215Z,17.06
2019-03-06T12:43:56.973Z,17.13
2019-03-06T12:44:56.807Z,17.05
2019-03-06T12:46:49.485Z,17.07
2019-03-06T12:47:55.332Z,17.10
2019-03-06T12:49:42.072Z,17.35
2019-03-06T12:50:41.947Z,17.35
2019-03-06T12:52:34.618Z,17.38
2019-03-06T12:53:34.515Z,17.20
2019-03-06T12:55:27.223Z,17.12
2019-03-06T12:56:27.095Z,17.24
2019-03-06T12:58:19.775Z,17.27
2019-03-06T12:59:19.665Z,17.25
2019-03-06T13:01:12.374Z,17.40
2019-03-06T13:02:12.245Z,17.45
2019-03-06T13:04:04.930Z,17.22
2019-03-06T13:05:04.832Z,17.12
2019-03-06T13:06:57.543Z,17.12
2019-03-06T13:07:57.408Z,17.18
2019-03-06T13:09:50.095Z,17.06
2019-03-06T13:10:49.988Z,17.13
2019-03-06T13:12:42.696Z,17.03
2019-03-06T13:13:42.569Z,16.80
2019-03-06T13:15:35.274Z,16.77
2019-03-06T13:16:35.174Z,16.85
2019-03-06T13:18:27.859Z,16.87
2019-03-06T13:19:27.746Z,16.82
2019-03-06T13:21:20.423Z,16.94
2019-03-06T13:22:20.327Z,16.91
2019-03-06T13:24:13.026Z,16.91
2019-03-06T13:25:12.901Z,16.85
2019-03-06T13:27:05.595Z,16.81
2019-03-06T13:28:05.493Z,16.92
2019-03-06T13:29:58.700Z,16.95
2019-03-06T13:30:58.564Z,16.95
2019-03-06T13:32:51.252Z,16.80
2019-03-06T13:33:51.146Z,16.76
2019-03-06T13:35:43.833Z,16.76
2019-03-06T13:36:43.708Z,16.73
2019-03-06T13:38:36.384Z,16.70
2019-03-06T13:39:36.284Z,16.62
2019-03-06T13:41:28.984Z,16.63
2019-03-06T13:42:28.862Z,16.65
2019-03-06T13:44:21.540Z,16.45
2019-03-06T13:45:21.447Z,16.51
2019-03-06T13:47:14.157Z,16.55
2019-03-06T13:48:14.043Z,16.52
2019-03-06T13:50:06.708Z,16.52
2019-03-06T13:51:06.598Z,16.52
2019-03-06T13:52:59.322Z,16.42
2019-03-06T13:53:59.180Z,16.32
2019-03-06T13:55:51.876Z,16.26
2019-03-06T13:56:51.949Z,16.25
2019-03-06T13:58:44.460Z,16.17
2019-03-06T13:59:44.337Z,16.17
2019-03-06T14:01:37.013Z,16.11
2019-03-06T14:02:37.313Z,16.13
2019-03-06T14:04:30.973Z,16.14
2019-03-06T14:05:29.477Z,16.06
2019-03-06T14:07:22.156Z,16.16
2019-03-06T14:08:22.044Z,16.16
2019-03-06T14:10:14.741Z,16.16
2019-03-06T14:11:14.609Z,16.08
2019-03-06T14:13:07.293Z,16.16
2019-03-06T14:14:07.189Z,16.13
2019-03-06T14:15:59.887Z,16.33
2019-03-06T14:16:59.756Z,16.14
2019-03-06T14:18:52.436Z,16.13
2019-03-06T14:19:52.331Z,16.14
2019-03-06T14:21:45.515Z,16.16
2019-03-06T14:22:45.392Z,16.18
2019-03-06T14:24:38.070Z,16.04
2019-03-06T14:25:37.959Z,15.86
2019-03-06T14:27:31.276Z,15.75
2019-03-06T14:28:30.529Z,15.74
2019-03-06T14:30:23.196Z,15.63
2019-03-06T14:31:23.263Z,15.73
2019-03-06T14:33:15.786Z,15.68
2019-03-06T14:34:15.671Z,15.68
2019-03-06T14:36:08.419Z,15.60
2019-03-06T14:37:08.322Z,15.62
2019-03-06T14:39:01.016Z,15.52
2019-03-06T14:40:09.417Z,15.58
2019-03-06T14:41:53.569Z,15.56
2019-03-06T14:42:53.458Z,15.44
2019-03-06T14:44:46.148Z,15.67
2019-03-06T14:45:46.024Z,15.65
2019-03-06T14:47:38.712Z,15.63
2019-03-06T14:48:38.596Z,15.74
2019-03-06T14:50:31.267Z,15.75
2019-03-06T14:51:31.166Z,15.78
2019-03-06T14:53:23.856Z,15.86
2019-03-06T14:54:23.731Z,15.77
2019-03-06T14:56:16.408Z,15.74
2019-03-06T14:57:16.305Z,15.67
2019-03-06T14:59:09.019Z,15.74
2019-03-06T15:00:08.994Z,15.77
2019-03-06T15:02:01.589Z,15.68
2019-03-06T15:03:01.488Z,15.75
2019-03-06T15:04:54.172Z,15.74
2019-03-06T15:05:54.046Z,15.59
2019-03-06T15:07:46.729Z,15.63
2019-03-06T15:08:46.620Z,15.60
2019-03-06T15:10:42.949Z,15.52
2019-03-06T15:11:39.176Z,15.51
2019-03-06T15:13:31.865Z,15.49
2019-03-06T15:14:36.183Z,15.35
2019-03-06T15:16:24.458Z,15.45
2019-03-06T15:17:24.329Z,15.38
2019-03-06T15:19:17.005Z,15.27
2019-03-06T15:20:16.899Z,15.34
2019-03-06T15:22:09.598Z,15.30
2019-03-06T15:23:09.473Z,15.27
2019-03-06T15:25:02.150Z,15.19
2019-03-06T15:26:02.047Z,15.22
2019-03-06T15:27:54.737Z,15.10
2019-03-06T15:28:54.607Z,15.01
2019-03-06T15:30:47.276Z,14.95
2019-03-06T15:31:47.176Z,14.93
2019-03-06T15:33:39.869Z,14.94
2019-03-06T15:34:39.736Z,14.94
2019-03-06T15:36:32.735Z,14.83
2019-03-06T15:37:32.297Z,14.69
2019-03-06T15:39:25.005Z,14.60
2019-03-06T15:40:24.873Z,14.63
2019-03-06T15:42:17.542Z,14.56
2019-03-06T15:43:17.431Z,14.49
2019-03-06T15:45:10.122Z,14.31
2019-03-06T15:46:10.005Z,14.21
2019-03-06T15:48:02.668Z,14.15
2019-03-06T15:49:02.556Z,14.02
2019-03-06T15:50:56.248Z,13.97
2019-03-06T15:51:56.117Z,13.94
2019-03-06T15:53:48.787Z,13.84
2019-03-06T15:54:48.683Z,13.84
2019-03-06T15:56:41.373Z,13.79
2019-03-06T15:57:41.249Z,13.81
2019-03-06T15:59:33.915Z,13.93
2019-03-06T16:00:33.823Z,13.91
2019-03-06T16:02:26.497Z,14.05
2019-03-06T16:03:26.369Z,13.99
2019-03-06T16:05:19.037Z,13.97
2019-03-06T16:06:20.641Z,13.97
2019-03-06T16:08:11.615Z,14.01
2019-03-06T16:09:11.491Z,13.90
2019-03-06T16:11:04.182Z,13.90
2019-03-06T16:12:04.078Z,13.90
2019-03-06T16:13:56.761Z,13.88
2019-03-06T16:14:56.638Z,13.93
2019-03-06T16:16:49.308Z,13.95
2019-03-06T16:17:49.202Z,13.87
2019-03-06T16:19:41.893Z,13.88
2019-03-06T16:20:41.758Z,13.90
2019-03-06T16:22:34.469Z,13.88
2019-03-06T16:23:34.355Z,13.90
2019-03-06T16:25:36.122Z,13.87
2019-03-06T16:26:26.917Z,13.87
2019-03-06T16:28:19.592Z,13.76
2019-03-06T16:29:19.477Z,13.87
2019-03-06T16:31:12.164Z,13.86
2019-03-06T16:32:12.043Z,13.84
2019-03-06T16:34:04.715Z,13.81
2019-03-06T16:35:04.714Z,13.81
2019-03-06T16:36:57.291Z,13.76
2019-03-06T16:37:57.165Z,13.78
2019-03-06T16:39:49.845Z,13.81
2019-03-06T16:40:49.726Z,13.78
2019-03-06T16:42:42.409Z,13.90
2019-03-06T16:43:42.286Z,13.76
2019-03-06T16:45:34.969Z,13.78
2019-03-06T16:46:34.878Z,13.84
2019-03-06T16:48:27.536Z,13.81
2019-03-06T16:49:28.476Z,13.84
2019-03-06T16:51:20.074Z,13.78
2019-03-06T16:52:19.963Z,13.79
2019-03-06T16:54:12.658Z,13.93
2019-03-06T16:55:12.538Z,13.84
2019-03-06T16:57:05.198Z,13.84
2019-03-06T16:58:05.090Z,13.86
2019-03-06T16:59:57.788Z,13.81
2019-03-06T17:00:57.651Z,13.76
2019-03-06T17:02:50.324Z,13.86
2019-03-06T17:03:50.216Z,13.84
2019-03-06T17:05:42.909Z,13.79
2019-03-06T17:06:42.776Z,13.79
2019-03-06T17:08:35.477Z,13.79
2019-03-06T17:09:35.331Z,13.78
2019-03-06T17:11:28.042Z,13.83
2019-03-06T17:12:27.905Z,13.81
2019-03-06T17:14:20.570Z,13.78
2019-03-06T17:15:20.459Z,13.72
2019-03-06T17:17:13.144Z,13.73
2019-03-06T17:18:13.022Z,13.73
2019-03-06T17:20:05.691Z,13.70
2019-03-06T17:21:05.577Z,13.69
2019-03-06T17:22:58.285Z,13.73
2019-03-06T17:23:58.140Z,13.69
2019-03-06T17:25:50.799Z,13.63
2019-03-06T17:26:50.693Z,13.72
2019-03-06T17:28:43.385Z,13.72
2019-03-06T17:29:43.254Z,13.68
2019-03-06T17:31:35.933Z,13.66
2019-03-06T17:32:35.817Z,13.55
2019-03-06T17:34:28.516Z,13.58
2019-03-06T17:35:28.377Z,13.58
2019-03-06T17:37:21.054Z,13.63
2019-03-06T17:38:20.942Z,13.65
2019-03-06T17:40:13.644Z,13.63
2019-03-06T17:41:13.513Z,13.63
2019-03-06T17:43:06.183Z,13.58
2019-03-06T17:44:06.072Z,13.68
2019-03-06T17:45:58.769Z,13.60
2019-03-06T17:46:58.641Z,13.62
2019-03-06T17:48:51.309Z,13.68
2019-03-06T17:49:51.194Z,13.60
2019-03-06T17:51:43.890Z,13.57
2019-03-06T17:52:43.754Z,13.62
2019-03-06T17:54:36.425Z,13.68
2019-03-06T17:55:36.323Z,13.60
2019-03-06T17:57:29.005Z,13.58
2019-03-06T17:58:28.883Z,13.47
2019-03-06T18:00:21.545Z,13.53
2019-03-06T18:01:21.439Z,13.54
2019-03-06T18:03:14.154Z,13.57
2019-03-06T18:04:14.017Z,13.51
2019-03-06T18:06:06.693Z,13.51
2019-03-06T18:07:06.579Z,13.42
2019-03-06T18:08:59.274Z,13.45
2019-03-06T18:09:59.146Z,13.39
2019-03-06T18:11:51.822Z,13.40
2019-03-06T18:12:53.527Z,13.39
2019-03-06T18:14:44.411Z,13.37
2019-03-06T18:15:44.563Z,13.36
2019-03-06T18:17:36.959Z,13.42
2019-03-06T18:18:36.898Z,13.36
2019-03-06T18:20:29.534Z,13.44
2019-03-06T18:21:29.404Z,13.37
2019-03-06T18:23:22.082Z,13.42
2019-03-06T18:24:21.967Z,13.35
2019-03-06T18:26:14.663Z,13.31
2019-03-06T18:27:14.529Z,13.32
2019-03-06T18:29:07.206Z,13.24
2019-03-06T18:30:07.101Z,13.20
2019-03-06T18:31:59.784Z,13.17
2019-03-06T18:32:59.662Z,13.21
2019-03-06T18:34:52.332Z,13.16
2019-03-06T18:35:52.225Z,13.09
2019-03-06T18:37:46.252Z,13.06
2019-03-06T18:38:44.780Z,13.09
2019-03-06T18:40:37.448Z,13.01
2019-03-06T18:41:37.355Z,12.98
2019-03-06T18:43:30.035Z,13.02
2019-03-06T18:44:29.907Z,12.95
2019-03-06T18:46:22.578Z,12.96
2019-03-06T18:47:22.458Z,12.92
2019-03-06T18:49:15.163Z,12.94
2019-03-06T18:50:15.026Z,12.96
2019-03-06T18:52:07.700Z,12.91
2019-03-06T18:53:07.578Z,12.99
2019-03-06T18:55:01.478Z,12.88
2019-03-06T18:56:00.145Z,12.83
2019-03-06T18:57:52.830Z,12.83
2019-03-06T18:58:52.716Z,12.78
2019-03-06T19:00:45.407Z,12.70
2019-03-06T19:01:45.270Z,12.71
2019-03-06T19:03:37.941Z,12.70
2019-03-06T19:04:37.845Z,12.61
2019-03-06T19:06:30.542Z,12.65
2019-03-06T19:07:30.391Z,12.53
2019-03-06T19:09:23.068Z,12.52
2019-03-06T19:10:22.957Z,12.48
2019-03-06T19:12:15.647Z,12.47
2019-03-06T19:13:15.517Z,12.56
2019-03-06T19:15:08.192Z,12.58
2019-03-06T19:16:08.082Z,12.47
2019-03-06T19:18:00.761Z,12.48
2019-03-06T19:19:00.637Z,12.45
2019-03-06T19:20:53.309Z,12.41
2019-03-06T19:21:53.200Z,12.51
2019-03-06T19:23:46.770Z,12.44
2019-03-06T19:24:45.789Z,12.44
2019-03-06T19:26:38.434Z,12.48
2019-03-06T19:27:38.331Z,12.47
2019-03-06T19:29:31.075Z,12.34
2019-03-06T19:30:30.901Z,12.38
2019-03-06T19:32:23.621Z,12.36
2019-03-06T19:33:23.496Z,12.31
2019-03-06T19:35:16.180Z,12.31
2019-03-06T19:36:16.053Z,12.33
2019-03-06T19:38:09.250Z,12.34
2019-03-06T19:39:09.161Z,12.40
2019-03-06T19:41:01.824Z,12.26
2019-03-06T19:42:01.703Z,12.20
2019-03-06T19:43:54.372Z,12.36
2019-03-06T19:44:54.262Z,12.26
2019-03-06T19:46:47.452Z,12.40
2019-03-06T19:47:47.359Z,12.26
2019-03-06T19:49:39.977Z,12.38
2019-03-06T19:50:39.918Z,12.26
2019-03-06T19:52:32.563Z,12.33
2019-03-06T19:53:32.433Z,12.38
2019-03-06T19:55:25.110Z,12.28
2019-03-06T19:56:25.011Z,12.36
2019-03-06T19:58:17.691Z,12.37
2019-03-06T19:59:17.562Z,12.33
2019-03-06T20:01:10.230Z,12.31
2019-03-06T20:02:10.128Z,12.33
2019-03-06T20:04:02.819Z,12.31
2019-03-06T20:05:02.689Z,12.37
2019-03-06T20:06:55.368Z,12.40
2019-03-06T20:07:55.251Z,12.38
2019-03-06T20:09:47.939Z,12.47
2019-03-06T20:10:47.811Z,12.43
2019-03-06T20:12:40.511Z,12.41
2019-03-06T20:13:40.365Z,12.40
2019-03-06T20:15:33.052Z,12.44
2019-03-06T20:16:32.926Z,12.41
2019-03-06T20:18:25.593Z,12.44
2019-03-06T20:19:25.479Z,12.48
2019-03-06T20:21:20.125Z,12.44
2019-03-06T20:22:18.053Z,12.52
2019-03-06T20:24:10.725Z,12.43
2019-03-06T20:25:10.618Z,12.47
2019-03-06T20:27:03.306Z,12.51
2019-03-06T20:28:03.182Z,12.47
2019-03-06T20:29:55.869Z,12.44
2019-03-06T20:30:55.762Z,12.44
2019-03-06T20:32:48.461Z,12.44
2019-03-06T20:33:48.324Z,12.41
2019-03-06T20:35:41.017Z,12.33
2019-03-06T20:36:40.886Z,12.26
2019-03-06T20:38:33.579Z,12.29
2019-03-06T20:39:33.445Z,12.29
2019-03-06T20:41:26.177Z,12.25
2019-03-06T20:42:26.016Z,12.37
2019-03-06T20:44:18.707Z,12.33
2019-03-06T20:45:18.576Z,12.28
2019-03-06T20:47:11.244Z,12.26
2019-03-06T20:48:11.131Z,12.22
2019-03-06T20:50:03.824Z,12.29
2019-03-06T20:51:03.691Z,12.28
2019-03-06T20:52:56.366Z,12.28
2019-03-06T20:53:56.275Z,12.18
2019-03-06T20:55:48.948Z,12.18
2019-03-06T20:56:48.818Z,12.15
2019-03-06T20:58:41.490Z,12.15
2019-03-06T20:59:42.638Z,12.15
2019-03-06T21:01:34.065Z,12.04
2019-03-06T21:02:33.940Z,12.18
2019-03-06T21:04:26.617Z,12.04
2019-03-06T21:05:26.518Z,12.15
2019-03-06T21:07:19.195Z,12.15
2019-03-06T21:08:19.058Z,12.13
2019-03-06T21:10:11.731Z,12.11
2019-03-06T21:11:11.618Z,12.13
2019-03-06T21:13:04.319Z,12.08
2019-03-06T21:14:04.190Z,12.08
2019-03-06T21:15:56.861Z,12.10
2019-03-06T21:16:56.746Z,12.13
2019-03-06T21:18:49.443Z,12.18
2019-03-06T21:19:49.334Z,12.18
2019-03-06T21:21:42.014Z,12.20
2019-03-06T21:22:41.855Z,12.13
2019-03-06T21:24:34.549Z,12.08
2019-03-06T21:25:34.422Z,12.16
2019-03-06T21:27:27.098Z,12.15
2019-03-06T21:28:26.981Z,12.18
2019-03-06T21:30:19.672Z,12.20
2019-03-06T21:31:19.539Z,12.11
2019-03-06T21:33:12.213Z,12.15
2019-03-06T21:34:12.098Z,12.11
2019-03-06T21:36:04.796Z,12.04
2019-03-06T21:37:04.661Z,12.16
2019-03-06T21:38:57.334Z,12.13
2019-03-06T21:39:57.219Z,12.11
2019-03-06T21:41:49.929Z,12.11
2019-03-06T21:42:49.795Z,12.05
2019-03-06T21:44:42.475Z,12.08
2019-03-06T21:45:42.352Z,12.05
2019-03-06T21:47:35.068Z,12.15
2019-03-06T21:48:34.914Z,12.07
2019-03-06T21:50:27.579Z,12.13
2019-03-06T21:51:27.474Z,12.13
2019-03-06T21:53:20.156Z,12.07
2019-03-06T21:54:20.028Z,12.10
2019-03-06T21:56:12.704Z,12.07
2019-03-06T21:57:12.596Z,12.11
2019-03-06T21:59:05.304Z,12.16
2019-03-06T22:00:05.173Z,12.13
2019-03-06T22:01:57.826Z,12.15
2019-03-06T22:02:57.713Z,12.15
2019-03-06T22:04:50.411Z,12.16
2019-03-06T22:05:50.273Z,12.11
2019-03-06T22:07:42.948Z,12.18
2019-03-06T22:08:42.832Z,12.16
2019-03-06T22:10:35.532Z,12.20
2019-03-06T22:11:35.398Z,12.01
2019-03-06T22:13:28.063Z,12.13
2019-03-06T22:14:27.957Z,12.01
2019-03-06T22:16:20.686Z,12.15
2019-03-06T22:17:20.511Z,12.16
2019-03-06T22:19:13.187Z,12.18
2019-03-06T22:20:13.078Z,12.18
2019-03-06T22:22:05.757Z,12.11
2019-03-06T22:23:05.637Z,12.13
2019-03-06T22:24:58.310Z,12.18
2019-03-06T22:25:58.188Z,12.08
2019-03-06T22:27:50.895Z,12.07
2019-03-06T22:28:50.755Z,12.19
2019-03-06T22:30:43.431Z,12.15
2019-03-06T22:31:43.324Z,12.13
2019-03-06T22:33:36.015Z,12.19
2019-03-06T22:34:35.886Z,12.18
2019-03-06T22:36:28.548Z,12.22
2019-03-06T22:37:28.440Z,12.13
2019-03-06T22:39:21.138Z,12.23
2019-03-06T22:40:21.016Z,12.16
2019-03-06T22:42:13.693Z,12.28
2019-03-06T22:43:13.563Z,12.16
2019-03-06T22:45:06.269Z,12.20
2019-03-06T22:46:06.126Z,12.16
2019-03-06T22:47:58.803Z,12.16
2019-03-06T22:48:58.695Z,12.20
2019-03-06T22:50:51.371Z,12.22
2019-03-06T22:51:51.249Z,12.22
2019-03-06T22:53:43.916Z,12.20
2019-03-06T22:54:43.798Z,12.13
2019-03-06T22:56:36.494Z,12.18
2019-03-06T22:57:36.365Z,12.18
2019-03-06T22:59:29.053Z,12.22
